sensor_id;sensor_type;location;lat;lon;timestamp;P1;durP1;ratioP1;P2;durP2;ratioP2
8982;SDS011;20979;59.850;10.660;2023-10-09T00:01:01;1.53;;;1.30;;
8982;SDS011;20979;59.850;10.660;2023-10-09T00:03:30;2.17;;;1.70;;
8982;SDS011;20979;59.850;10.660;2023-10-09T00:05:59;1.90;;;1.70;;
8982;SDS011;20979;59.850;10.660;2023-10-09T00:08:28;2.73;;;2.00;;
8982;SDS011;20979;59.850;10.660;2023-10-09T00:10:57;1.10;;;1.10;;
8982;SDS011;20979;59.850;10.660;2023-10-09T00:13:39;2.00;;;1.30;;
8982;SDS011;20979;59.850;10.660;2023-10-09T00:16:14;5.23;;;2.33;;
8982;SDS011;20979;59.850;10.660;2023-10-09T00:18:48;1.60;;;1.50;;
8982;SDS011;20979;59.850;10.660;2023-10-09T00:21:17;1.67;;;1.50;;
8982;SDS011;20979;59.850;10.660;2023-10-09T00:23:46;1.40;;;1.30;;
8982;SDS011;20979;59.850;10.660;2023-10-09T00:26:21;2.03;;;1.43;;
8982;SDS011;20979;59.850;10.660;2023-10-09T00:28:48;1.47;;;1.00;;
8982;SDS011;20979;59.850;10.660;2023-10-09T00:31:16;1.20;;;1.10;;
8982;SDS011;20979;59.850;10.660;2023-10-09T00:33:52;1.20;;;1.10;;
8982;SDS011;20979;59.850;10.660;2023-10-09T00:36:22;1.13;;;1.10;;
8982;SDS011;20979;59.850;10.660;2023-10-09T00:38:54;1.70;;;1.47;;
8982;SDS011;20979;59.850;10.660;2023-10-09T00:41:22;4.67;;;1.57;;
8982;SDS011;20979;59.850;10.660;2023-10-09T00:43:54;1.30;;;1.20;;
8982;SDS011;20979;59.850;10.660;2023-10-09T00:46:24;1.50;;;1.40;;
8982;SDS011;20979;59.850;10.660;2023-10-09T00:48:56;1.53;;;1.43;;
8982;SDS011;20979;59.850;10.660;2023-10-09T00:51:28;2.13;;;1.87;;
8982;SDS011;20979;59.850;10.660;2023-10-09T00:54:00;1.93;;;1.70;;
8982;SDS011;20979;59.850;10.660;2023-10-09T00:56:32;2.23;;;1.73;;
8982;SDS011;20979;59.850;10.660;2023-10-09T00:59:06;2.23;;;1.63;;
8982;SDS011;20979;59.850;10.660;2023-10-09T01:01:39;1.67;;;1.30;;
8982;SDS011;20979;59.850;10.660;2023-10-09T01:04:13;1.50;;;1.33;;
8982;SDS011;20979;59.850;10.660;2023-10-09T01:06:44;1.50;;;1.40;;
8982;SDS011;20979;59.850;10.660;2023-10-09T01:09:18;1.50;;;1.40;;
8982;SDS011;20979;59.850;10.660;2023-10-09T01:11:47;1.43;;;1.27;;
8982;SDS011;20979;59.850;10.660;2023-10-09T01:14:28;2.00;;;1.70;;
8982;SDS011;20979;59.850;10.660;2023-10-09T01:17:01;1.40;;;1.30;;
8982;SDS011;20979;59.850;10.660;2023-10-09T01:19:31;2.40;;;1.70;;
8982;SDS011;20979;59.850;10.660;2023-10-09T01:22:00;2.10;;;1.90;;
8982;SDS011;20979;59.850;10.660;2023-10-09T01:24:31;1.87;;;1.77;;
8982;SDS011;20979;59.850;10.660;2023-10-09T01:27:04;1.87;;;1.77;;
8982;SDS011;20979;59.850;10.660;2023-10-09T01:29:37;1.93;;;1.80;;
8982;SDS011;20979;59.850;10.660;2023-10-09T01:32:07;2.50;;;2.00;;
8982;SDS011;20979;59.850;10.660;2023-10-09T01:34:41;3.13;;;2.03;;
8982;SDS011;20979;59.850;10.660;2023-10-09T01:37:10;2.10;;;1.80;;
8982;SDS011;20979;59.850;10.660;2023-10-09T01:39:45;3.27;;;2.27;;
8982;SDS011;20979;59.850;10.660;2023-10-09T01:42:13;2.10;;;1.80;;
8982;SDS011;20979;59.850;10.660;2023-10-09T01:44:53;2.27;;;1.90;;
8982;SDS011;20979;59.850;10.660;2023-10-09T01:47:20;2.40;;;2.00;;
8982;SDS011;20979;59.850;10.660;2023-10-09T01:49:48;2.10;;;1.60;;
8982;SDS011;20979;59.850;10.660;2023-10-09T01:52:18;1.50;;;1.40;;
8982;SDS011;20979;59.850;10.660;2023-10-09T01:54:49;1.77;;;1.50;;
8982;SDS011;20979;59.850;10.660;2023-10-09T01:57:19;1.73;;;1.63;;
8982;SDS011;20979;59.850;10.660;2023-10-09T01:59:49;1.70;;;1.60;;
8982;SDS011;20979;59.850;10.660;2023-10-09T02:02:18;2.20;;;1.47;;
8982;SDS011;20979;59.850;10.660;2023-10-09T02:04:52;1.70;;;1.57;;
8982;SDS011;20979;59.850;10.660;2023-10-09T02:07:29;1.40;;;1.30;;
8982;SDS011;20979;59.850;10.660;2023-10-09T02:10:07;1.93;;;1.23;;
8982;SDS011;20979;59.850;10.660;2023-10-09T02:12:47;1.90;;;1.30;;
8982;SDS011;20979;59.850;10.660;2023-10-09T02:15:17;1.53;;;1.30;;
8982;SDS011;20979;59.850;10.660;2023-10-09T02:18:05;2.00;;;1.30;;
8982;SDS011;20979;59.850;10.660;2023-10-09T02:20:42;2.07;;;1.20;;
8982;SDS011;20979;59.850;10.660;2023-10-09T02:23:11;1.40;;;1.30;;
8982;SDS011;20979;59.850;10.660;2023-10-09T02:25:40;1.67;;;1.47;;
8982;SDS011;20979;59.850;10.660;2023-10-09T02:28:09;1.70;;;1.60;;
8982;SDS011;20979;59.850;10.660;2023-10-09T02:30:43;1.40;;;1.30;;
8982;SDS011;20979;59.850;10.660;2023-10-09T02:33:12;1.17;;;1.07;;
8982;SDS011;20979;59.850;10.660;2023-10-09T02:35:44;1.30;;;1.20;;
8982;SDS011;20979;59.850;10.660;2023-10-09T02:38:16;1.27;;;1.17;;
8982;SDS011;20979;59.850;10.660;2023-10-09T02:40:49;1.83;;;1.00;;
8982;SDS011;20979;59.850;10.660;2023-10-09T02:43:43;1.60;;;1.27;;
8982;SDS011;20979;59.850;10.660;2023-10-09T02:46:11;1.30;;;1.20;;
8982;SDS011;20979;59.850;10.660;2023-10-09T02:48:42;0.93;;;0.90;;
8982;SDS011;20979;59.850;10.660;2023-10-09T02:51:15;2.23;;;1.10;;
8982;SDS011;20979;59.850;10.660;2023-10-09T02:53:56;1.17;;;1.13;;
8982;SDS011;20979;59.850;10.660;2023-10-09T02:56:25;0.90;;;0.90;;
8982;SDS011;20979;59.850;10.660;2023-10-09T02:59:02;1.47;;;1.10;;
8982;SDS011;20979;59.850;10.660;2023-10-09T03:01:32;1.43;;;1.33;;
8982;SDS011;20979;59.850;10.660;2023-10-09T03:04:02;1.50;;;1.40;;
8982;SDS011;20979;59.850;10.660;2023-10-09T03:06:31;2.03;;;1.10;;
8982;SDS011;20979;59.850;10.660;2023-10-09T03:09:01;2.03;;;1.33;;
8982;SDS011;20979;59.850;10.660;2023-10-09T03:11:43;1.80;;;1.10;;
8982;SDS011;20979;59.850;10.660;2023-10-09T03:14:11;1.27;;;1.13;;
8982;SDS011;20979;59.850;10.660;2023-10-09T03:16:39;1.40;;;1.30;;
8982;SDS011;20979;59.850;10.660;2023-10-09T03:19:06;1.67;;;1.27;;
8982;SDS011;20979;59.850;10.660;2023-10-09T03:21:36;1.20;;;1.10;;
8982;SDS011;20979;59.850;10.660;2023-10-09T03:24:04;2.37;;;1.60;;
8982;SDS011;20979;59.850;10.660;2023-10-09T03:26:33;2.07;;;1.40;;
8982;SDS011;20979;59.850;10.660;2023-10-09T03:29:02;1.30;;;1.20;;
8982;SDS011;20979;59.850;10.660;2023-10-09T03:31:31;2.60;;;1.20;;
8982;SDS011;20979;59.850;10.660;2023-10-09T03:33:59;2.80;;;1.37;;
8982;SDS011;20979;59.850;10.660;2023-10-09T03:36:27;1.40;;;1.30;;
8982;SDS011;20979;59.850;10.660;2023-10-09T03:38:56;2.00;;;1.63;;
8982;SDS011;20979;59.850;10.660;2023-10-09T03:41:25;1.70;;;1.60;;
8982;SDS011;20979;59.850;10.660;2023-10-09T03:43:54;8.80;;;5.17;;
8982;SDS011;20979;59.850;10.660;2023-10-09T03:46:23;6.97;;;4.63;;
8982;SDS011;20979;59.850;10.660;2023-10-09T03:48:58;5.83;;;3.80;;
8982;SDS011;20979;59.850;10.660;2023-10-09T03:51:36;5.07;;;3.43;;
8982;SDS011;20979;59.850;10.660;2023-10-09T03:54:04;3.47;;;2.60;;
8982;SDS011;20979;59.850;10.660;2023-10-09T03:56:32;4.80;;;2.00;;
8982;SDS011;20979;59.850;10.660;2023-10-09T03:59:00;2.10;;;1.90;;
8982;SDS011;20979;59.850;10.660;2023-10-09T04:01:31;2.40;;;1.90;;
8982;SDS011;20979;59.850;10.660;2023-10-09T04:04:04;2.80;;;1.70;;
8982;SDS011;20979;59.850;10.660;2023-10-09T04:06:35;3.33;;;1.70;;
8982;SDS011;20979;59.850;10.660;2023-10-09T04:09:03;1.93;;;1.70;;
8982;SDS011;20979;59.850;10.660;2023-10-09T04:11:39;1.83;;;1.70;;
8982;SDS011;20979;59.850;10.660;2023-10-09T04:14:09;3.50;;;2.00;;
8982;SDS011;20979;59.850;10.660;2023-10-09T04:16:46;2.20;;;1.77;;
8982;SDS011;20979;59.850;10.660;2023-10-09T04:19:18;1.50;;;1.30;;
8982;SDS011;20979;59.850;10.660;2023-10-09T04:21:47;2.90;;;1.50;;
8982;SDS011;20979;59.850;10.660;2023-10-09T04:24:14;1.73;;;1.63;;
8982;SDS011;20979;59.850;10.660;2023-10-09T04:26:51;2.43;;;1.50;;
8982;SDS011;20979;59.850;10.660;2023-10-09T04:29:27;3.00;;;1.60;;
8982;SDS011;20979;59.850;10.660;2023-10-09T04:32:05;1.83;;;1.63;;
8982;SDS011;20979;59.850;10.660;2023-10-09T04:34:41;1.60;;;1.50;;
8982;SDS011;20979;59.850;10.660;2023-10-09T04:37:13;2.23;;;1.70;;
8982;SDS011;20979;59.850;10.660;2023-10-09T04:39:49;1.77;;;1.50;;
8982;SDS011;20979;59.850;10.660;2023-10-09T04:42:27;2.00;;;1.80;;
8982;SDS011;20979;59.850;10.660;2023-10-09T04:45:03;1.67;;;1.50;;
8982;SDS011;20979;59.850;10.660;2023-10-09T04:48:08;1.83;;;1.63;;
8982;SDS011;20979;59.850;10.660;2023-10-09T04:50:35;1.80;;;1.70;;
8982;SDS011;20979;59.850;10.660;2023-10-09T04:53:32;4.47;;;1.90;;
8982;SDS011;20979;59.850;10.660;2023-10-09T04:56:09;3.13;;;1.70;;
8982;SDS011;20979;59.850;10.660;2023-10-09T04:58:41;3.00;;;1.77;;
8982;SDS011;20979;59.850;10.660;2023-10-09T05:01:10;1.57;;;1.43;;
8982;SDS011;20979;59.850;10.660;2023-10-09T05:04:02;2.03;;;1.40;;
8982;SDS011;20979;59.850;10.660;2023-10-09T05:06:40;1.87;;;1.30;;
8982;SDS011;20979;59.850;10.660;2023-10-09T05:09:21;2.23;;;1.57;;
8982;SDS011;20979;59.850;10.660;2023-10-09T05:11:47;2.47;;;1.43;;
8982;SDS011;20979;59.850;10.660;2023-10-09T05:14:40;2.40;;;1.17;;
8982;SDS011;20979;59.850;10.660;2023-10-09T05:17:19;2.20;;;1.00;;
8982;SDS011;20979;59.850;10.660;2023-10-09T05:19:52;2.70;;;1.20;;
8982;SDS011;20979;59.850;10.660;2023-10-09T05:22:41;1.30;;;1.20;;
8982;SDS011;20979;59.850;10.660;2023-10-09T05:25:22;1.57;;;1.40;;
8982;SDS011;20979;59.850;10.660;2023-10-09T05:28:17;1.80;;;1.47;;
8982;SDS011;20979;59.850;10.660;2023-10-09T05:31:14;1.73;;;1.50;;
8982;SDS011;20979;59.850;10.660;2023-10-09T05:34:07;1.60;;;1.50;;
8982;SDS011;20979;59.850;10.660;2023-10-09T05:36:38;1.77;;;1.30;;
8982;SDS011;20979;59.850;10.660;2023-10-09T05:39:12;2.07;;;1.47;;
8982;SDS011;20979;59.850;10.660;2023-10-09T05:41:47;1.50;;;1.40;;
8982;SDS011;20979;59.850;10.660;2023-10-09T05:44:24;2.77;;;1.50;;
8982;SDS011;20979;59.850;10.660;2023-10-09T05:47:09;1.63;;;1.53;;
8982;SDS011;20979;59.850;10.660;2023-10-09T05:50:00;1.67;;;1.53;;
8982;SDS011;20979;59.850;10.660;2023-10-09T05:52:43;2.33;;;1.60;;
8982;SDS011;20979;59.850;10.660;2023-10-09T05:55:39;1.83;;;1.47;;
8982;SDS011;20979;59.850;10.660;2023-10-09T05:58:29;3.97;;;1.60;;
8982;SDS011;20979;59.850;10.660;2023-10-09T06:01:40;2.53;;;1.50;;
8982;SDS011;20979;59.850;10.660;2023-10-09T06:04:25;2.63;;;2.10;;
8982;SDS011;20979;59.850;10.660;2023-10-09T06:07:14;2.87;;;1.70;;
8982;SDS011;20979;59.850;10.660;2023-10-09T06:09:50;1.50;;;1.40;;
8982;SDS011;20979;59.850;10.660;2023-10-09T06:12:18;2.30;;;1.97;;
8982;SDS011;20979;59.850;10.660;2023-10-09T06:15:14;2.17;;;1.97;;
8982;SDS011;20979;59.850;10.660;2023-10-09T06:17:45;2.73;;;1.90;;
8982;SDS011;20979;59.850;10.660;2023-10-09T06:20:16;2.03;;;1.87;;
8982;SDS011;20979;59.850;10.660;2023-10-09T06:23:15;2.63;;;1.90;;
8982;SDS011;20979;59.850;10.660;2023-10-09T06:25:50;1.77;;;1.67;;
8982;SDS011;20979;59.850;10.660;2023-10-09T06:28:17;1.87;;;1.77;;
8982;SDS011;20979;59.850;10.660;2023-10-09T06:30:58;3.70;;;1.80;;
8982;SDS011;20979;59.850;10.660;2023-10-09T06:33:46;1.80;;;1.60;;
8982;SDS011;20979;59.850;10.660;2023-10-09T06:36:33;4.80;;;1.50;;
8982;SDS011;20979;59.850;10.660;2023-10-09T06:38:59;2.10;;;1.67;;
8982;SDS011;20979;59.850;10.660;2023-10-09T06:41:42;2.20;;;2.00;;
8982;SDS011;20979;59.850;10.660;2023-10-09T06:44:10;4.47;;;2.97;;
8982;SDS011;20979;59.850;10.660;2023-10-09T06:46:58;4.20;;;2.47;;
8982;SDS011;20979;59.850;10.660;2023-10-09T06:49:33;2.70;;;2.50;;
8982;SDS011;20979;59.850;10.660;2023-10-09T06:52:01;3.20;;;2.40;;
8982;SDS011;20979;59.850;10.660;2023-10-09T06:55:01;3.87;;;1.93;;
8982;SDS011;20979;59.850;10.660;2023-10-09T06:57:36;3.33;;;2.70;;
8982;SDS011;20979;59.850;10.660;2023-10-09T07:00:14;2.43;;;2.23;;
8982;SDS011;20979;59.850;10.660;2023-10-09T07:02:59;4.17;;;2.80;;
8982;SDS011;20979;59.850;10.660;2023-10-09T07:05:36;5.03;;;3.00;;
8982;SDS011;20979;59.850;10.660;2023-10-09T07:08:24;5.93;;;3.53;;
8982;SDS011;20979;59.850;10.660;2023-10-09T07:10:57;6.00;;;3.67;;
8982;SDS011;20979;59.850;10.660;2023-10-09T07:13:47;9.07;;;5.07;;
8982;SDS011;20979;59.850;10.660;2023-10-09T07:16:22;24.83;;;11.77;;
8982;SDS011;20979;59.850;10.660;2023-10-09T07:19:03;17.37;;;9.17;;
8982;SDS011;20979;59.850;10.660;2023-10-09T07:21:55;14.67;;;8.30;;
8982;SDS011;20979;59.850;10.660;2023-10-09T07:24:28;14.87;;;7.40;;
8982;SDS011;20979;59.850;10.660;2023-10-09T07:27:03;10.27;;;6.03;;
8982;SDS011;20979;59.850;10.660;2023-10-09T07:29:35;9.03;;;3.50;;
8982;SDS011;20979;59.850;10.660;2023-10-09T07:32:12;5.17;;;2.30;;
8982;SDS011;20979;59.850;10.660;2023-10-09T07:34:45;3.20;;;2.10;;
8982;SDS011;20979;59.850;10.660;2023-10-09T07:37:19;2.40;;;2.20;;
8982;SDS011;20979;59.850;10.660;2023-10-09T07:39:48;2.30;;;2.03;;
8982;SDS011;20979;59.850;10.660;2023-10-09T07:42:22;6.03;;;2.40;;
8982;SDS011;20979;59.850;10.660;2023-10-09T07:45:00;4.17;;;2.77;;
8982;SDS011;20979;59.850;10.660;2023-10-09T07:47:39;4.10;;;2.67;;
8982;SDS011;20979;59.850;10.660;2023-10-09T07:50:26;2.77;;;2.30;;
8982;SDS011;20979;59.850;10.660;2023-10-09T07:53:03;4.07;;;2.23;;
8982;SDS011;20979;59.850;10.660;2023-10-09T07:55:43;7.67;;;2.53;;
8982;SDS011;20979;59.850;10.660;2023-10-09T07:58:19;3.20;;;2.10;;
8982;SDS011;20979;59.850;10.660;2023-10-09T08:00:52;4.73;;;2.30;;
8982;SDS011;20979;59.850;10.660;2023-10-09T08:03:41;2.83;;;1.80;;
8982;SDS011;20979;59.850;10.660;2023-10-09T08:06:11;2.87;;;1.70;;
8982;SDS011;20979;59.850;10.660;2023-10-09T08:08:56;4.40;;;1.63;;
8982;SDS011;20979;59.850;10.660;2023-10-09T08:11:41;3.03;;;1.60;;
8982;SDS011;20979;59.850;10.660;2023-10-09T08:14:26;4.87;;;1.87;;
8982;SDS011;20979;59.850;10.660;2023-10-09T08:17:12;3.00;;;2.00;;
8982;SDS011;20979;59.850;10.660;2023-10-09T08:19:46;2.73;;;1.50;;
8982;SDS011;20979;59.850;10.660;2023-10-09T08:22:22;3.53;;;1.73;;
8982;SDS011;20979;59.850;10.660;2023-10-09T08:25:19;2.70;;;1.33;;
8982;SDS011;20979;59.850;10.660;2023-10-09T08:27:57;2.50;;;1.50;;
8982;SDS011;20979;59.850;10.660;2023-10-09T08:30:44;1.50;;;1.33;;
8982;SDS011;20979;59.850;10.660;2023-10-09T08:33:29;3.33;;;1.57;;
8982;SDS011;20979;59.850;10.660;2023-10-09T08:36:06;2.00;;;1.57;;
8982;SDS011;20979;59.850;10.660;2023-10-09T08:38:34;4.07;;;1.80;;
8982;SDS011;20979;59.850;10.660;2023-10-09T08:41:09;3.00;;;1.43;;
8982;SDS011;20979;59.850;10.660;2023-10-09T08:43:49;2.87;;;1.70;;
8982;SDS011;20979;59.850;10.660;2023-10-09T08:46:19;2.07;;;1.60;;
8982;SDS011;20979;59.850;10.660;2023-10-09T08:48:49;1.40;;;1.20;;
8982;SDS011;20979;59.850;10.660;2023-10-09T08:51:17;1.70;;;1.50;;
8982;SDS011;20979;59.850;10.660;2023-10-09T08:53:46;1.83;;;1.10;;
8982;SDS011;20979;59.850;10.660;2023-10-09T08:56:13;1.93;;;1.10;;
8982;SDS011;20979;59.850;10.660;2023-10-09T08:58:44;1.67;;;1.33;;
8982;SDS011;20979;59.850;10.660;2023-10-09T09:01:15;1.20;;;1.10;;
8982;SDS011;20979;59.850;10.660;2023-10-09T09:03:47;2.17;;;1.50;;
8982;SDS011;20979;59.850;10.660;2023-10-09T09:06:17;1.40;;;1.20;;
8982;SDS011;20979;59.850;10.660;2023-10-09T09:08:45;1.23;;;1.13;;
8982;SDS011;20979;59.850;10.660;2023-10-09T09:11:13;1.50;;;1.10;;
8982;SDS011;20979;59.850;10.660;2023-10-09T09:13:42;0.87;;;0.83;;
8982;SDS011;20979;59.850;10.660;2023-10-09T09:16:15;3.57;;;1.50;;
8982;SDS011;20979;59.850;10.660;2023-10-09T09:18:50;2.13;;;1.13;;
8982;SDS011;20979;59.850;10.660;2023-10-09T09:21:27;3.23;;;1.30;;
8982;SDS011;20979;59.850;10.660;2023-10-09T09:23:55;1.50;;;1.20;;
8982;SDS011;20979;59.850;10.660;2023-10-09T09:26:36;1.43;;;1.07;;
8982;SDS011;20979;59.850;10.660;2023-10-09T09:29:10;3.80;;;1.40;;
8982;SDS011;20979;59.850;10.660;2023-10-09T09:31:37;2.03;;;1.13;;
8982;SDS011;20979;59.850;10.660;2023-10-09T09:34:07;1.37;;;1.00;;
8982;SDS011;20979;59.850;10.660;2023-10-09T09:36:53;1.43;;;1.03;;
8982;SDS011;20979;59.850;10.660;2023-10-09T09:39:21;3.90;;;1.20;;
8982;SDS011;20979;59.850;10.660;2023-10-09T09:41:54;1.30;;;1.20;;
8982;SDS011;20979;59.850;10.660;2023-10-09T09:44:30;1.27;;;1.07;;
8982;SDS011;20979;59.850;10.660;2023-10-09T09:46:59;1.87;;;1.37;;
8982;SDS011;20979;59.850;10.660;2023-10-09T09:49:29;1.40;;;1.00;;
8982;SDS011;20979;59.850;10.660;2023-10-09T09:52:02;1.20;;;1.10;;
8982;SDS011;20979;59.850;10.660;2023-10-09T09:54:35;0.83;;;0.83;;
8982;SDS011;20979;59.850;10.660;2023-10-09T09:57:03;3.30;;;1.20;;
8982;SDS011;20979;59.850;10.660;2023-10-09T09:59:37;1.03;;;0.93;;
8982;SDS011;20979;59.850;10.660;2023-10-09T10:02:16;3.33;;;1.10;;
8982;SDS011;20979;59.850;10.660;2023-10-09T10:04:46;3.33;;;1.23;;
8982;SDS011;20979;59.850;10.660;2023-10-09T10:07:16;1.67;;;1.40;;
8982;SDS011;20979;59.850;10.660;2023-10-09T10:09:46;1.80;;;1.10;;
8982;SDS011;20979;59.850;10.660;2023-10-09T10:15:01;1.20;;;1.10;;
8982;SDS011;20979;59.850;10.660;2023-10-09T10:17:52;1.30;;;1.20;;
8982;SDS011;20979;59.850;10.660;2023-10-09T10:20:44;1.77;;;1.20;;
8982;SDS011;20979;59.850;10.660;2023-10-09T10:23:33;2.30;;;1.50;;
8982;SDS011;20979;59.850;10.660;2023-10-09T10:26:15;2.43;;;1.40;;
8982;SDS011;20979;59.850;10.660;2023-10-09T10:34:15;2.17;;;1.20;;
8982;SDS011;20979;59.850;10.660;2023-10-09T10:36:49;1.47;;;1.20;;
8982;SDS011;20979;59.850;10.660;2023-10-09T10:39:19;2.63;;;1.37;;
8982;SDS011;20979;59.850;10.660;2023-10-09T10:42:01;1.63;;;1.33;;
8982;SDS011;20979;59.850;10.660;2023-10-09T10:44:32;5.00;;;1.50;;
8982;SDS011;20979;59.850;10.660;2023-10-09T10:47:02;2.00;;;1.17;;
8982;SDS011;20979;59.850;10.660;2023-10-09T10:49:30;2.07;;;1.47;;
8982;SDS011;20979;59.850;10.660;2023-10-09T10:52:03;1.80;;;1.30;;
8982;SDS011;20979;59.850;10.660;2023-10-09T10:54:44;2.20;;;1.50;;
8982;SDS011;20979;59.850;10.660;2023-10-09T10:57:34;3.23;;;1.80;;
8982;SDS011;20979;59.850;10.660;2023-10-09T11:00:21;1.83;;;1.40;;
8982;SDS011;20979;59.850;10.660;2023-10-09T11:03:06;2.10;;;1.07;;
8982;SDS011;20979;59.850;10.660;2023-10-09T11:05:54;1.13;;;1.03;;
8982;SDS011;20979;59.850;10.660;2023-10-09T11:08:26;1.30;;;1.03;;
8982;SDS011;20979;59.850;10.660;2023-10-09T11:13:44;1.30;;;1.13;;
8982;SDS011;20979;59.850;10.660;2023-10-09T11:16:23;1.90;;;1.40;;
8982;SDS011;20979;59.850;10.660;2023-10-09T11:19:07;1.47;;;1.00;;
8982;SDS011;20979;59.850;10.660;2023-10-09T11:21:48;1.57;;;1.13;;
8982;SDS011;20979;59.850;10.660;2023-10-09T11:24:24;1.20;;;1.10;;
8982;SDS011;20979;59.850;10.660;2023-10-09T11:26:50;2.00;;;1.10;;
8982;SDS011;20979;59.850;10.660;2023-10-09T11:29:23;1.00;;;0.90;;
8982;SDS011;20979;59.850;10.660;2023-10-09T11:32:15;0.97;;;0.90;;
8982;SDS011;20979;59.850;10.660;2023-10-09T11:34:44;1.07;;;0.90;;
8982;SDS011;20979;59.850;10.660;2023-10-09T11:37:17;1.23;;;1.10;;
8982;SDS011;20979;59.850;10.660;2023-10-09T11:40:05;1.10;;;1.00;;
8982;SDS011;20979;59.850;10.660;2023-10-09T11:42:51;1.53;;;0.70;;
8982;SDS011;20979;59.850;10.660;2023-10-09T11:45:24;1.93;;;1.00;;
8982;SDS011;20979;59.850;10.660;2023-10-09T11:47:55;0.67;;;0.67;;
8982;SDS011;20979;59.850;10.660;2023-10-09T11:53:16;1.00;;;0.90;;
8982;SDS011;20979;59.850;10.660;2023-10-09T11:55:58;1.60;;;1.00;;
8982;SDS011;20979;59.850;10.660;2023-10-09T11:58:26;0.60;;;0.60;;
8982;SDS011;20979;59.850;10.660;2023-10-09T12:00:55;1.30;;;0.80;;
8982;SDS011;20979;59.850;10.660;2023-10-09T12:03:24;1.23;;;0.90;;
8982;SDS011;20979;59.850;10.660;2023-10-09T12:05:58;0.80;;;0.70;;
8982;SDS011;20979;59.850;10.660;2023-10-09T12:08:37;0.70;;;0.70;;
8982;SDS011;20979;59.850;10.660;2023-10-09T12:11:06;0.83;;;0.63;;
8982;SDS011;20979;59.850;10.660;2023-10-09T12:13:36;0.70;;;0.70;;
8982;SDS011;20979;59.850;10.660;2023-10-09T12:16:05;0.80;;;0.80;;
8982;SDS011;20979;59.850;10.660;2023-10-09T12:18:35;1.03;;;0.77;;
8982;SDS011;20979;59.850;10.660;2023-10-09T12:21:04;0.60;;;0.60;;
8982;SDS011;20979;59.850;10.660;2023-10-09T12:23:31;0.90;;;0.60;;
8982;SDS011;20979;59.850;10.660;2023-10-09T12:26:01;0.87;;;0.70;;
8982;SDS011;20979;59.850;10.660;2023-10-09T12:28:28;1.37;;;0.80;;
8982;SDS011;20979;59.850;10.660;2023-10-09T12:30:58;1.10;;;0.70;;
8982;SDS011;20979;59.850;10.660;2023-10-09T12:33:28;0.60;;;0.60;;
8982;SDS011;20979;59.850;10.660;2023-10-09T12:35:56;1.00;;;0.80;;
8982;SDS011;20979;59.850;10.660;2023-10-09T12:38:25;0.93;;;0.60;;
8982;SDS011;20979;59.850;10.660;2023-10-09T12:41:00;0.80;;;0.80;;
8982;SDS011;20979;59.850;10.660;2023-10-09T12:43:33;1.10;;;0.80;;
8982;SDS011;20979;59.850;10.660;2023-10-09T12:46:04;1.00;;;0.60;;
8982;SDS011;20979;59.850;10.660;2023-10-09T12:48:33;1.60;;;0.73;;
8982;SDS011;20979;59.850;10.660;2023-10-09T12:51:02;0.70;;;0.70;;
8982;SDS011;20979;59.850;10.660;2023-10-09T12:53:31;2.87;;;0.80;;
8982;SDS011;20979;59.850;10.660;2023-10-09T12:55:59;0.60;;;0.53;;
8982;SDS011;20979;59.850;10.660;2023-10-09T12:58:27;1.50;;;0.63;;
8982;SDS011;20979;59.850;10.660;2023-10-09T13:00:54;1.10;;;1.00;;
8982;SDS011;20979;59.850;10.660;2023-10-09T13:03:22;1.37;;;0.90;;
8982;SDS011;20979;59.850;10.660;2023-10-09T13:05:54;0.70;;;0.70;;
8982;SDS011;20979;59.850;10.660;2023-10-09T13:08:23;1.07;;;0.97;;
8982;SDS011;20979;59.850;10.660;2023-10-09T13:10:56;1.00;;;0.73;;
8982;SDS011;20979;59.850;10.660;2023-10-09T13:13:29;1.37;;;1.00;;
8982;SDS011;20979;59.850;10.660;2023-10-09T13:16:10;1.47;;;1.13;;
8982;SDS011;20979;59.850;10.660;2023-10-09T13:18:39;0.93;;;0.87;;
8982;SDS011;20979;59.850;10.660;2023-10-09T13:21:08;1.37;;;1.00;;
8982;SDS011;20979;59.850;10.660;2023-10-09T13:23:35;1.37;;;0.90;;
8982;SDS011;20979;59.850;10.660;2023-10-09T13:26:11;0.80;;;0.70;;
8982;SDS011;20979;59.850;10.660;2023-10-09T13:28:49;1.07;;;0.70;;
8982;SDS011;20979;59.850;10.660;2023-10-09T13:31:17;1.73;;;1.10;;
8982;SDS011;20979;59.850;10.660;2023-10-09T13:33:46;0.80;;;0.80;;
8982;SDS011;20979;59.850;10.660;2023-10-09T13:36:15;2.20;;;0.90;;
8982;SDS011;20979;59.850;10.660;2023-10-09T13:38:43;1.27;;;0.90;;
8982;SDS011;20979;59.850;10.660;2023-10-09T13:41:11;3.33;;;1.50;;
8982;SDS011;20979;59.850;10.660;2023-10-09T13:43:39;2.13;;;0.97;;
8982;SDS011;20979;59.850;10.660;2023-10-09T13:46:08;1.07;;;0.70;;
8982;SDS011;20979;59.850;10.660;2023-10-09T13:48:38;1.33;;;1.00;;
8982;SDS011;20979;59.850;10.660;2023-10-09T13:51:11;0.70;;;0.70;;
8982;SDS011;20979;59.850;10.660;2023-10-09T13:53:44;1.17;;;0.87;;
8982;SDS011;20979;59.850;10.660;2023-10-09T13:56:13;0.77;;;0.70;;
8982;SDS011;20979;59.850;10.660;2023-10-09T13:58:44;1.17;;;0.80;;
8982;SDS011;20979;59.850;10.660;2023-10-09T14:01:11;1.80;;;0.73;;
8982;SDS011;20979;59.850;10.660;2023-10-09T14:03:52;1.33;;;1.10;;
8982;SDS011;20979;59.850;10.660;2023-10-09T14:06:23;1.37;;;0.90;;
8982;SDS011;20979;59.850;10.660;2023-10-09T14:08:59;1.00;;;0.90;;
8982;SDS011;20979;59.850;10.660;2023-10-09T14:11:29;1.07;;;0.87;;
8982;SDS011;20979;59.850;10.660;2023-10-09T14:13:56;0.80;;;0.70;;
8982;SDS011;20979;59.850;10.660;2023-10-09T14:16:26;2.43;;;1.03;;
8982;SDS011;20979;59.850;10.660;2023-10-09T14:18:54;1.57;;;1.00;;
8982;SDS011;20979;59.850;10.660;2023-10-09T14:21:24;1.43;;;1.00;;
8982;SDS011;20979;59.850;10.660;2023-10-09T14:23:55;1.30;;;1.20;;
8982;SDS011;20979;59.850;10.660;2023-10-09T14:26:28;1.03;;;0.90;;
8982;SDS011;20979;59.850;10.660;2023-10-09T14:28:59;1.70;;;1.20;;
8982;SDS011;20979;59.850;10.660;2023-10-09T14:31:29;1.33;;;1.23;;
8982;SDS011;20979;59.850;10.660;2023-10-09T14:33:59;1.30;;;1.20;;
8982;SDS011;20979;59.850;10.660;2023-10-09T14:36:27;1.27;;;0.93;;
8982;SDS011;20979;59.850;10.660;2023-10-09T14:38:59;2.07;;;1.13;;
8982;SDS011;20979;59.850;10.660;2023-10-09T14:41:28;2.93;;;0.90;;
8982;SDS011;20979;59.850;10.660;2023-10-09T14:43:59;1.30;;;1.20;;
8982;SDS011;20979;59.850;10.660;2023-10-09T14:46:26;1.90;;;1.60;;
8982;SDS011;20979;59.850;10.660;2023-10-09T14:48:55;1.73;;;1.43;;
8982;SDS011;20979;59.850;10.660;2023-10-09T14:51:25;3.03;;;1.60;;
8982;SDS011;20979;59.850;10.660;2023-10-09T14:54:09;2.93;;;1.73;;
8982;SDS011;20979;59.850;10.660;2023-10-09T14:56:42;2.47;;;1.60;;
8982;SDS011;20979;59.850;10.660;2023-10-09T15:01:51;4.00;;;2.20;;
8982;SDS011;20979;59.850;10.660;2023-10-09T15:04:29;3.53;;;2.10;;
8982;SDS011;20979;59.850;10.660;2023-10-09T15:06:56;2.93;;;1.73;;
8982;SDS011;20979;59.850;10.660;2023-10-09T15:09:24;2.70;;;1.80;;
8982;SDS011;20979;59.850;10.660;2023-10-09T15:11:57;2.13;;;1.70;;
8982;SDS011;20979;59.850;10.660;2023-10-09T15:14:25;4.27;;;1.50;;
8982;SDS011;20979;59.850;10.660;2023-10-09T15:16:52;2.60;;;1.87;;
8982;SDS011;20979;59.850;10.660;2023-10-09T15:19:20;2.00;;;1.73;;
8982;SDS011;20979;59.850;10.660;2023-10-09T15:21:54;2.57;;;1.50;;
8982;SDS011;20979;59.850;10.660;2023-10-09T15:24:24;2.67;;;1.60;;
8982;SDS011;20979;59.850;10.660;2023-10-09T15:26:55;2.03;;;1.70;;
8982;SDS011;20979;59.850;10.660;2023-10-09T15:29:25;2.60;;;1.60;;
8982;SDS011;20979;59.850;10.660;2023-10-09T15:31:55;2.67;;;1.80;;
8982;SDS011;20979;59.850;10.660;2023-10-09T15:34:29;1.80;;;1.50;;
8982;SDS011;20979;59.850;10.660;2023-10-09T15:36:57;2.87;;;1.60;;
8982;SDS011;20979;59.850;10.660;2023-10-09T15:39:25;2.87;;;1.80;;
8982;SDS011;20979;59.850;10.660;2023-10-09T15:41:53;2.47;;;1.70;;
8982;SDS011;20979;59.850;10.660;2023-10-09T15:44:31;2.70;;;1.93;;
8982;SDS011;20979;59.850;10.660;2023-10-09T15:47:01;2.53;;;1.73;;